sensor_id;sensor_type;location;lat;lon;timestamp;pressure;altitude;pressure_sealevel;temperature;humidity
20027;BME280;10174;42.688;23.344;2022-11-14T00:00:13;96458.56;;;3.31;89.67
20027;BME280;10174;42.688;23.344;2022-11-14T00:02:39;96348.00;;;2.65;89.95
20027;BME280;10174;42.688;23.344;2022-11-14T00:05:05;96466.81;;;3.36;89.68
20027;BME280;10174;42.688;23.344;2022-11-14T00:07:33;96470.22;;;3.30;89.80
20027;BME280;10174;42.688;23.344;2022-11-14T00:09:58;96462.25;;;3.30;89.96
20027;BME280;10174;42.688;23.344;2022-11-14T00:12:24;96487.31;;;3.43;90.24
20027;BME280;10174;42.688;23.344;2022-11-14T00:14:50;96484.25;;;3.46;90.03
20027;BME280;10174;42.688;23.344;2022-11-14T00:17:16;96460.41;;;3.31;89.54
20027;BME280;10174;42.688;23.344;2022-11-14T00:19:41;96477.09;;;3.46;89.83
20027;BME280;10174;42.688;23.344;2022-11-14T00:22:06;96426.44;;;3.05;89.61
20027;BME280;10174;42.688;23.344;2022-11-14T00:24:32;96478.31;;;3.44;89.26
20027;BME280;10174;42.688;23.344;2022-11-14T00:26:57;96449.44;;;3.19;89.77
20027;BME280;10174;42.688;23.344;2022-11-14T00:29:22;96464.00;;;3.23;89.61
20027;BME280;10174;42.688;23.344;2022-11-14T00:31:48;96457.78;;;3.16;89.82
20027;BME280;10174;42.688;23.344;2022-11-14T00:34:13;96458.81;;;3.15;89.95
20027;BME280;10174;42.688;23.344;2022-11-14T00:36:39;96460.63;;;3.14;89.66
20027;BME280;10174;42.688;23.344;2022-11-14T00:39:04;96469.44;;;3.15;89.43
20027;BME280;10174;42.688;23.344;2022-11-14T00:41:30;96486.63;;;3.19;89.46
20027;BME280;10174;42.688;23.344;2022-11-14T00:43:55;96478.41;;;3.14;89.54
20027;BME280;10174;42.688;23.344;2022-11-14T00:46:20;96475.63;;;3.22;89.77
20027;BME280;10174;42.688;23.344;2022-11-14T00:48:46;96488.28;;;3.20;89.75
20027;BME280;10174;42.688;23.344;2022-11-14T00:51:11;96467.78;;;3.14;89.61
20027;BME280;10174;42.688;23.344;2022-11-14T00:53:37;96474.09;;;3.13;89.42
20027;BME280;10174;42.688;23.344;2022-11-14T00:56:02;96371.78;;;2.37;89.71
20027;BME280;10174;42.688;23.344;2022-11-14T00:58:28;96470.84;;;2.96;89.77
20027;BME280;10174;42.688;23.344;2022-11-14T01:00:54;96385.78;;;2.46;89.59
20027;BME280;10174;42.688;23.344;2022-11-14T01:03:19;96472.13;;;3.00;89.58
20027;BME280;10174;42.688;23.344;2022-11-14T01:05:47;96416.50;;;2.55;89.71
20027;BME280;10174;42.688;23.344;2022-11-14T01:08:14;96450.66;;;2.80;89.69
20027;BME280;10174;42.688;23.344;2022-11-14T01:10:45;96471.59;;;2.90;89.84
20027;BME280;10174;42.688;23.344;2022-11-14T01:13:11;96375.44;;;2.36;89.32
20027;BME280;10174;42.688;23.344;2022-11-14T01:15:41;96373.06;;;2.26;89.38
20027;BME280;10174;42.688;23.344;2022-11-14T01:18:09;96449.63;;;2.96;89.50
20027;BME280;10174;42.688;23.344;2022-11-14T01:20:37;96452.47;;;2.94;89.23
20027;BME280;10174;42.688;23.344;2022-11-14T01:23:03;96350.63;;;2.44;88.52
20027;BME280;10174;42.688;23.344;2022-11-14T01:25:29;96417.16;;;2.79;88.96
20027;BME280;10174;42.688;23.344;2022-11-14T01:27:56;96437.66;;;2.85;88.50
20027;BME280;10174;42.688;23.344;2022-11-14T01:30:22;96428.94;;;2.91;88.12
20027;BME280;10174;42.688;23.344;2022-11-14T01:32:47;96436.44;;;3.02;88.10
20027;BME280;10174;42.688;23.344;2022-11-14T01:35:12;96455.50;;;3.13;88.57
20027;BME280;10174;42.688;23.344;2022-11-14T01:37:38;96453.88;;;3.12;88.93
20027;BME280;10174;42.688;23.344;2022-11-14T01:40:04;96442.56;;;3.03;88.60
20027;BME280;10174;42.688;23.344;2022-11-14T01:42:29;96430.59;;;2.92;89.06
20027;BME280;10174;42.688;23.344;2022-11-14T01:44:54;96372.00;;;2.57;89.33
20027;BME280;10174;42.688;23.344;2022-11-14T01:47:26;96367.97;;;2.61;88.87
20027;BME280;10174;42.688;23.344;2022-11-14T01:49:58;96433.50;;;2.97;88.79
20027;BME280;10174;42.688;23.344;2022-11-14T01:52:26;96416.78;;;2.82;88.60
20027;BME280;10174;42.688;23.344;2022-11-14T01:54:58;96428.69;;;2.86;88.26
20027;BME280;10174;42.688;23.344;2022-11-14T01:57:28;96361.72;;;2.47;88.62
20027;BME280;10174;42.688;23.344;2022-11-14T01:59:57;96426.28;;;2.91;89.19
20027;BME280;10174;42.688;23.344;2022-11-14T02:02:25;96435.91;;;2.92;88.79
20027;BME280;10174;42.688;23.344;2022-11-14T02:04:54;96399.59;;;2.78;89.17
20027;BME280;10174;42.688;23.344;2022-11-14T02:07:23;96336.81;;;2.34;89.58
20027;BME280;10174;42.688;23.344;2022-11-14T02:09:50;96393.84;;;2.74;90.06
20027;BME280;10174;42.688;23.344;2022-11-14T02:12:17;96327.78;;;2.43;89.76
20027;BME280;10174;42.688;23.344;2022-11-14T02:14:46;96422.13;;;3.03;90.35
20027;BME280;10174;42.688;23.344;2022-11-14T02:17:13;96421.31;;;3.03;90.29
20027;BME280;10174;42.688;23.344;2022-11-14T02:19:53;96415.94;;;2.96;90.22
20027;BME280;10174;42.688;23.344;2022-11-14T02:22:19;96411.56;;;2.89;90.96
20027;BME280;10174;42.688;23.344;2022-11-14T02:24:44;96406.72;;;2.77;91.60
20027;BME280;10174;42.688;23.344;2022-11-14T02:27:11;96394.34;;;2.63;92.45
20027;BME280;10174;42.688;23.344;2022-11-14T02:29:38;96284.78;;;1.96;92.49
20027;BME280;10174;42.688;23.344;2022-11-14T02:32:04;96418.16;;;2.78;93.46
20027;BME280;10174;42.688;23.344;2022-11-14T02:34:30;96418.06;;;2.86;93.46
20027;BME280;10174;42.688;23.344;2022-11-14T02:36:56;96407.06;;;2.89;93.36
20027;BME280;10174;42.688;23.344;2022-11-14T02:39:21;96418.66;;;3.03;93.43
20027;BME280;10174;42.688;23.344;2022-11-14T02:41:49;96416.06;;;3.10;92.91
20027;BME280;10174;42.688;23.344;2022-11-14T02:44:14;96406.75;;;2.99;93.01
20027;BME280;10174;42.688;23.344;2022-11-14T02:46:40;96416.94;;;3.17;92.77
20027;BME280;10174;42.688;23.344;2022-11-14T02:49:05;96400.78;;;3.12;92.03
20027;BME280;10174;42.688;23.344;2022-11-14T02:51:31;96290.66;;;2.43;92.10
20027;BME280;10174;42.688;23.344;2022-11-14T02:53:56;96409.75;;;3.11;92.45
20027;BME280;10174;42.688;23.344;2022-11-14T02:56:21;96388.16;;;2.77;92.60
20027;BME280;10174;42.688;23.344;2022-11-14T02:58:47;96293.66;;;2.03;93.40
20027;BME280;10174;42.688;23.344;2022-11-14T03:01:12;96396.81;;;2.64;94.24
20027;BME280;10174;42.688;23.344;2022-11-14T03:03:37;96419.63;;;2.80;94.01
20027;BME280;10174;42.688;23.344;2022-11-14T03:06:03;96412.44;;;2.96;93.94
20027;BME280;10174;42.688;23.344;2022-11-14T03:08:29;96386.88;;;2.73;93.58
20027;BME280;10174;42.688;23.344;2022-11-14T03:10:55;96402.66;;;2.96;93.72
20027;BME280;10174;42.688;23.344;2022-11-14T03:13:20;96388.53;;;2.96;92.58
20027;BME280;10174;42.688;23.344;2022-11-14T03:15:46;96391.91;;;2.83;93.01
20027;BME280;10174;42.688;23.344;2022-11-14T03:18:11;96293.31;;;2.28;91.67
20027;BME280;10174;42.688;23.344;2022-11-14T03:20:37;96289.22;;;2.25;92.13
20027;BME280;10174;42.688;23.344;2022-11-14T03:23:03;96400.28;;;2.87;91.73
20027;BME280;10174;42.688;23.344;2022-11-14T03:25:28;96360.22;;;2.60;92.26
20027;BME280;10174;42.688;23.344;2022-11-14T03:27:53;96408.25;;;2.87;92.21
20027;BME280;10174;42.688;23.344;2022-11-14T03:30:19;96312.44;;;2.23;92.95
20027;BME280;10174;42.688;23.344;2022-11-14T03:32:44;96292.97;;;2.16;93.49
20027;BME280;10174;42.688;23.344;2022-11-14T03:35:10;96346.28;;;2.58;93.57
20027;BME280;10174;42.688;23.344;2022-11-14T03:37:35;96405.03;;;2.91;93.95
20027;BME280;10174;42.688;23.344;2022-11-14T03:40:01;96405.59;;;2.87;93.66
20027;BME280;10174;42.688;23.344;2022-11-14T03:42:26;96375.66;;;2.56;94.58
20027;BME280;10174;42.688;23.344;2022-11-14T03:44:52;96293.94;;;1.93;94.57
20027;BME280;10174;42.688;23.344;2022-11-14T03:47:17;96402.09;;;2.64;94.58
20027;BME280;10174;42.688;23.344;2022-11-14T03:49:42;96378.56;;;2.40;94.75
20027;BME280;10174;42.688;23.344;2022-11-14T03:52:10;96377.91;;;2.38;95.92
20027;BME280;10174;42.688;23.344;2022-11-14T03:54:36;96405.31;;;2.60;95.90
20027;BME280;10174;42.688;23.344;2022-11-14T03:57:01;96348.00;;;2.29;95.59
20027;BME280;10174;42.688;23.344;2022-11-14T03:59:26;96380.97;;;2.56;96.00
20027;BME280;10174;42.688;23.344;2022-11-14T04:01:52;96386.00;;;2.66;96.22
20027;BME280;10174;42.688;23.344;2022-11-14T04:04:17;96398.34;;;2.74;96.75
20027;BME280;10174;42.688;23.344;2022-11-14T04:06:42;96365.44;;;2.53;96.31
20027;BME280;10174;42.688;23.344;2022-11-14T04:09:09;96388.53;;;2.74;96.24
20027;BME280;10174;42.688;23.344;2022-11-14T04:11:34;96375.44;;;2.73;96.23
20027;BME280;10174;42.688;23.344;2022-11-14T04:14:00;96360.28;;;2.66;96.17
20027;BME280;10174;42.688;23.344;2022-11-14T04:16:25;96395.50;;;2.97;96.55
20027;BME280;10174;42.688;23.344;2022-11-14T04:18:50;96396.69;;;2.94;96.47
20027;BME280;10174;42.688;23.344;2022-11-14T04:21:16;96375.06;;;2.76;96.93
20027;BME280;10174;42.688;23.344;2022-11-14T04:23:41;96368.09;;;2.75;96.94
20027;BME280;10174;42.688;23.344;2022-11-14T04:26:06;96392.34;;;2.87;96.36
20027;BME280;10174;42.688;23.344;2022-11-14T04:28:32;96371.41;;;2.77;96.56
20027;BME280;10174;42.688;23.344;2022-11-14T04:30:57;96393.66;;;2.97;96.64
20027;BME280;10174;42.688;23.344;2022-11-14T04:33:24;96369.91;;;2.89;95.97
20027;BME280;10174;42.688;23.344;2022-11-14T04:35:50;96376.22;;;3.10;95.96
20027;BME280;10174;42.688;23.344;2022-11-14T04:38:15;96386.47;;;3.13;95.74
20027;BME280;10174;42.688;23.344;2022-11-14T04:40:47;96392.66;;;2.98;95.84
20027;BME280;10174;42.688;23.344;2022-11-14T04:43:13;96365.72;;;2.80;96.97
20027;BME280;10174;42.688;23.344;2022-11-14T04:45:38;96384.88;;;2.97;96.72
20027;BME280;10174;42.688;23.344;2022-11-14T04:48:03;96392.09;;;3.03;96.70
20027;BME280;10174;42.688;23.344;2022-11-14T04:50:29;96327.81;;;2.64;95.97
20027;BME280;10174;42.688;23.344;2022-11-14T04:52:54;96363.66;;;2.97;96.30
20027;BME280;10174;42.688;23.344;2022-11-14T04:55:20;96365.88;;;2.93;96.21
20027;BME280;10174;42.688;23.344;2022-11-14T04:57:45;96360.56;;;2.93;96.02
20027;BME280;10174;42.688;23.344;2022-11-14T05:00:11;96385.84;;;2.89;95.88
20027;BME280;10174;42.688;23.344;2022-11-14T05:02:36;96373.19;;;2.91;96.53
20027;BME280;10174;42.688;23.344;2022-11-14T05:05:02;96284.69;;;2.41;95.83
20027;BME280;10174;42.688;23.344;2022-11-14T05:07:27;96316.50;;;2.41;95.76
20027;BME280;10174;42.688;23.344;2022-11-14T05:09:53;96358.38;;;2.60;96.10
20027;BME280;10174;42.688;23.344;2022-11-14T05:12:18;96392.16;;;2.88;96.42
20027;BME280;10174;42.688;23.344;2022-11-14T05:14:43;96361.63;;;2.77;95.63
20027;BME280;10174;42.688;23.344;2022-11-14T05:17:09;96400.47;;;2.85;94.95
20027;BME280;10174;42.688;23.344;2022-11-14T05:19:34;96398.34;;;2.74;95.53
20027;BME280;10174;42.688;23.344;2022-11-14T05:21:59;96401.53;;;2.69;95.75
20027;BME280;10174;42.688;23.344;2022-11-14T05:24:25;96376.81;;;2.68;95.37
20027;BME280;10174;42.688;23.344;2022-11-14T05:26:51;96382.13;;;2.68;95.17
20027;BME280;10174;42.688;23.344;2022-11-14T05:29:16;96409.31;;;2.71;95.17
20027;BME280;10174;42.688;23.344;2022-11-14T05:31:42;96390.63;;;2.79;95.13
20027;BME280;10174;42.688;23.344;2022-11-14T05:34:07;96296.00;;;2.13;94.58
20027;BME280;10174;42.688;23.344;2022-11-14T05:36:32;96406.53;;;2.79;94.73
20027;BME280;10174;42.688;23.344;2022-11-14T05:38:58;96386.81;;;2.66;94.60
20027;BME280;10174;42.688;23.344;2022-11-14T05:41:23;96400.25;;;2.65;95.00
20027;BME280;10174;42.688;23.344;2022-11-14T05:43:48;96377.25;;;2.51;94.84
20027;BME280;10174;42.688;23.344;2022-11-14T05:46:15;96386.19;;;2.64;94.25
20027;BME280;10174;42.688;23.344;2022-11-14T05:48:41;96389.97;;;2.55;94.24
20027;BME280;10174;42.688;23.344;2022-11-14T05:51:10;96389.66;;;2.65;94.18
20027;BME280;10174;42.688;23.344;2022-11-14T05:53:36;96391.00;;;2.76;93.63
20027;BME280;10174;42.688;23.344;2022-11-14T05:56:03;96299.69;;;2.34;93.39
20027;BME280;10174;42.688;23.344;2022-11-14T05:58:30;96383.94;;;3.05;92.39
20027;BME280;10174;42.688;23.344;2022-11-14T06:01:05;96396.59;;;3.02;91.25
20027;BME280;10174;42.688;23.344;2022-11-14T06:03:32;96377.34;;;3.00;90.95
20027;BME280;10174;42.688;23.344;2022-11-14T06:06:02;96297.03;;;2.34;90.96
20027;BME280;10174;42.688;23.344;2022-11-14T06:08:29;96391.28;;;3.02;90.92
20027;BME280;10174;42.688;23.344;2022-11-14T06:10:55;96400.88;;;3.03;90.91
20027;BME280;10174;42.688;23.344;2022-11-14T06:13:25;96387.84;;;2.87;91.01
20027;BME280;10174;42.688;23.344;2022-11-14T06:15:50;96371.63;;;2.97;90.78
20027;BME280;10174;42.688;23.344;2022-11-14T06:18:16;96311.22;;;2.41;90.48
20027;BME280;10174;42.688;23.344;2022-11-14T06:20:41;96438.06;;;3.25;90.35
20027;BME280;10174;42.688;23.344;2022-11-14T06:23:07;96432.56;;;3.27;90.44
20027;BME280;10174;42.688;23.344;2022-11-14T06:25:32;96413.28;;;3.39;89.60
20027;BME280;10174;42.688;23.344;2022-11-14T06:27:58;96427.56;;;3.38;89.70
20027;BME280;10174;42.688;23.344;2022-11-14T06:30:23;96407.06;;;3.32;89.86
20027;BME280;10174;42.688;23.344;2022-11-14T06:32:48;96310.28;;;2.48;89.80
20027;BME280;10174;42.688;23.344;2022-11-14T06:35:14;96305.44;;;2.52;90.04
20027;BME280;10174;42.688;23.344;2022-11-14T06:37:39;96404.66;;;2.94;90.70
20027;BME280;10174;42.688;23.344;2022-11-14T06:40:05;96412.16;;;3.06;90.68
20027;BME280;10174;42.688;23.344;2022-11-14T06:42:31;96401.25;;;3.22;90.32
20027;BME280;10174;42.688;23.344;2022-11-14T06:44:56;96414.84;;;3.34;89.39
20027;BME280;10174;42.688;23.344;2022-11-14T06:47:22;96408.88;;;3.47;89.38
20027;BME280;10174;42.688;23.344;2022-11-14T06:49:47;96426.22;;;3.71;89.46
20027;BME280;10174;42.688;23.344;2022-11-14T06:52:12;96418.63;;;3.68;88.52
20027;BME280;10174;42.688;23.344;2022-11-14T06:54:38;96399.09;;;3.54;88.16
20027;BME280;10174;42.688;23.344;2022-11-14T06:57:03;96417.41;;;3.42;89.45
20027;BME280;10174;42.688;23.344;2022-11-14T06:59:28;96416.19;;;3.23;90.40
20027;BME280;10174;42.688;23.344;2022-11-14T07:01:54;96293.94;;;2.66;90.36
20027;BME280;10174;42.688;23.344;2022-11-14T07:04:19;96388.75;;;3.37;89.63
20027;BME280;10174;42.688;23.344;2022-11-14T07:06:44;96279.91;;;2.73;90.01
20027;BME280;10174;42.688;23.344;2022-11-14T07:09:10;96368.63;;;3.28;90.09
20027;BME280;10174;42.688;23.344;2022-11-14T07:11:35;96399.53;;;3.58;89.67
20027;BME280;10174;42.688;23.344;2022-11-14T07:14:02;96393.59;;;3.84;89.02
20027;BME280;10174;42.688;23.344;2022-11-14T07:16:29;96410.25;;;3.99;88.22
20027;BME280;10174;42.688;23.344;2022-11-14T07:18:58;96381.59;;;3.66;88.63
20027;BME280;10174;42.688;23.344;2022-11-14T07:21:25;96320.44;;;3.10;89.46
20027;BME280;10174;42.688;23.344;2022-11-14T07:23:51;96296.56;;;3.10;90.00
20027;BME280;10174;42.688;23.344;2022-11-14T07:26:17;96403.88;;;3.93;89.24
20027;BME280;10174;42.688;23.344;2022-11-14T07:28:43;96366.19;;;3.83;88.43
20027;BME280;10174;42.688;23.344;2022-11-14T07:31:12;96302.63;;;3.60;87.50
20027;BME280;10174;42.688;23.344;2022-11-14T07:33:38;96384.38;;;4.15;86.82
20027;BME280;10174;42.688;23.344;2022-11-14T07:36:04;96386.38;;;4.48;86.16
20027;BME280;10174;42.688;23.344;2022-11-14T07:38:30;96384.16;;;4.58;84.39
20027;BME280;10174;42.688;23.344;2022-11-14T07:41:04;96405.75;;;4.83;84.45
20027;BME280;10174;42.688;23.344;2022-11-14T07:43:30;96388.06;;;4.62;84.59
20027;BME280;10174;42.688;23.344;2022-11-14T07:45:59;96391.25;;;4.86;84.47
20027;BME280;10174;42.688;23.344;2022-11-14T07:48:25;96392.91;;;5.00;83.99
20027;BME280;10174;42.688;23.344;2022-11-14T07:50:50;96361.69;;;4.74;83.75
20027;BME280;10174;42.688;23.344;2022-11-14T07:53:17;96288.44;;;4.23;83.62
20027;BME280;10174;42.688;23.344;2022-11-14T07:55:43;96393.69;;;4.87;83.21
20027;BME280;10174;42.688;23.344;2022-11-14T07:58:08;96374.63;;;4.84;84.21
20027;BME280;10174;42.688;23.344;2022-11-14T08:00:34;96395.19;;;5.23;82.91
20027;BME280;10174;42.688;23.344;2022-11-14T08:03:00;96368.72;;;5.08;82.60
20027;BME280;10174;42.688;23.344;2022-11-14T08:05:26;96379.63;;;5.40;81.00
20027;BME280;10174;42.688;23.344;2022-11-14T08:07:51;96377.56;;;5.22;82.01
20027;BME280;10174;42.688;23.344;2022-11-14T08:10:17;96392.97;;;5.40;81.92
20027;BME280;10174;42.688;23.344;2022-11-14T08:12:44;96356.06;;;5.44;81.12
20027;BME280;10174;42.688;23.344;2022-11-14T08:15:13;96394.81;;;5.93;79.28
20027;BME280;10174;42.688;23.344;2022-11-14T08:17:38;96350.72;;;5.37;80.91
20027;BME280;10174;42.688;23.344;2022-11-14T08:20:05;96361.38;;;5.10;81.70
20027;BME280;10174;42.688;23.344;2022-11-14T08:22:31;96375.31;;;5.12;82.58
20027;BME280;10174;42.688;23.344;2022-11-14T08:24:57;96398.28;;;5.27;83.01
20027;BME280;10174;42.688;23.344;2022-11-14T08:27:23;96364.91;;;5.38;81.94
20027;BME280;10174;42.688;23.344;2022-11-14T08:29:48;96306.44;;;4.82;82.37
20027;BME280;10174;42.688;23.344;2022-11-14T08:32:15;96374.72;;;5.44;82.01
20027;BME280;10174;42.688;23.344;2022-11-14T08:34:41;96369.56;;;5.15;82.93
20027;BME280;10174;42.688;23.344;2022-11-14T08:37:06;96349.88;;;5.03;82.77
20027;BME280;10174;42.688;23.344;2022-11-14T08:39:32;96284.25;;;4.62;83.16
20027;BME280;10174;42.688;23.344;2022-11-14T08:41:57;96378.63;;;5.34;83.20
20027;BME280;10174;42.688;23.344;2022-11-14T08:44:22;96366.72;;;5.57;82.11
20027;BME280;10174;42.688;23.344;2022-11-14T08:46:48;96367.53;;;5.51;82.09
20027;BME280;10174;42.688;23.344;2022-11-14T08:49:14;96379.84;;;5.79;81.61
20027;BME280;10174;42.688;23.344;2022-11-14T08:51:39;96263.81;;;5.09;80.96
20027;BME280;10174;42.688;23.344;2022-11-14T08:54:05;96379.03;;;5.58;81.95
20027;BME280;10174;42.688;23.344;2022-11-14T08:56:31;96356.06;;;5.64;82.08
20027;BME280;10174;42.688;23.344;2022-11-14T08:58:56;96332.28;;;5.29;82.46
20027;BME280;10174;42.688;23.344;2022-11-14T09:01:21;96358.28;;;5.87;82.01
20027;BME280;10174;42.688;23.344;2022-11-14T09:03:47;96241.69;;;5.29;80.74
20027;BME280;10174;42.688;23.344;2022-11-14T09:06:12;96342.81;;;6.36;79.91
20027;BME280;10174;42.688;23.344;2022-11-14T09:08:37;96334.28;;;6.59;78.82
20027;BME280;10174;42.688;23.344;2022-11-14T09:11:03;96334.31;;;6.91;78.08
20027;BME280;10174;42.688;23.344;2022-11-14T09:13:32;96309.50;;;6.45;77.47
20027;BME280;10174;42.688;23.344;2022-11-14T09:15:58;96333.69;;;6.57;78.35
20027;BME280;10174;42.688;23.344;2022-11-14T09:18:23;96332.47;;;6.53;78.03
20027;BME280;10174;42.688;23.344;2022-11-14T09:20:48;96251.19;;;5.97;78.78
20027;BME280;10174;42.688;23.344;2022-11-14T09:23:14;96328.31;;;6.64;78.13
20027;BME280;10174;42.688;23.344;2022-11-14T09:25:39;96218.91;;;6.12;78.03
20027;BME280;10174;42.688;23.344;2022-11-14T09:28:05;96313.13;;;6.57;78.62
20027;BME280;10174;42.688;23.344;2022-11-14T09:30:32;96305.22;;;6.76;78.45
20027;BME280;10174;42.688;23.344;2022-11-14T09:32:59;96315.53;;;6.66;78.72
20027;BME280;10174;42.688;23.344;2022-11-14T09:35:26;96312.22;;;6.70;78.10
20027;BME280;10174;42.688;23.344;2022-11-14T09:38:01;96313.31;;;6.63;78.87
20027;BME280;10174;42.688;23.344;2022-11-14T09:40:27;96323.00;;;6.50;79.09
20027;BME280;10174;42.688;23.344;2022-11-14T09:45:55;96316.59;;;6.06;80.50
20027;BME280;10174;42.688;23.344;2022-11-14T09:48:22;96193.28;;;5.45;80.85
20027;BME280;10174;42.688;23.344;2022-11-14T09:51:06;96307.50;;;6.34;80.28
20027;BME280;10174;42.688;23.344;2022-11-14T09:53:38;96288.09;;;6.06;80.36
20027;BME280;10174;42.688;23.344;2022-11-14T09:56:20;96303.88;;;6.15;80.73
20027;BME280;10174;42.688;23.344;2022-11-14T09:58:47;96223.53;;;5.71;81.03
20027;BME280;10174;42.688;23.344;2022-11-14T10:20:57;96252.06;;;9.27;69.26
20027;BME280;10174;42.688;23.344;2022-11-14T10:23:42;96251.38;;;10.20;65.58
20027;BME280;10174;42.688;23.344;2022-11-14T10:26:29;96174.25;;;9.74;65.06
20027;BME280;10174;42.688;23.344;2022-11-14T10:39:46;96232.16;;;12.76;56.35
20027;BME280;10174;42.688;23.344;2022-11-14T10:44:57;96219.94;;;11.57;59.94
20027;BME280;10174;42.688;23.344;2022-11-14T10:47:31;96141.63;;;11.20;59.95
20027;BME280;10174;42.688;23.344;2022-11-14T10:50:10;96145.69;;;10.55;61.46
20027;BME280;10174;42.688;23.344;2022-11-14T10:52:40;96199.25;;;11.24;61.24
20027;BME280;10174;42.688;23.344;2022-11-14T10:55:14;96192.75;;;11.76;59.29
20027;BME280;10174;42.688;23.344;2022-11-14T10:57:40;96203.91;;;11.68;60.11
20027;BME280;10174;42.688;23.344;2022-11-14T11:00:17;96196.22;;;11.37;60.89
20027;BME280;10174;42.688;23.344;2022-11-14T11:03:01;96199.06;;;11.48;61.30
20027;BME280;10174;42.688;23.344;2022-11-14T11:05:29;96179.44;;;11.47;60.22
20027;BME280;10174;42.688;23.344;2022-11-14T11:07:57;96172.44;;;11.12;61.55
20027;BME280;10174;42.688;23.344;2022-11-14T11:10:44;96185.63;;;11.31;60.89
20027;BME280;10174;42.688;23.344;2022-11-14T11:13:33;96164.03;;;10.92;62.27
20027;BME280;10174;42.688;23.344;2022-11-14T11:16:01;96156.47;;;11.22;61.63
20027;BME280;10174;42.688;23.344;2022-11-14T11:18:33;96162.00;;;11.72;60.26
20027;BME280;10174;42.688;23.344;2022-11-14T11:21:11;96181.69;;;12.17;59.30
20027;BME280;10174;42.688;23.344;2022-11-14T11:23:56;96185.72;;;11.75;59.82
20027;BME280;10174;42.688;23.344;2022-11-14T11:26:23;96179.06;;;10.87;62.43
20027;BME280;10174;42.688;23.344;2022-11-14T11:31:54;96090.94;;;9.69;65.62
20027;BME280;10174;42.688;23.344;2022-11-14T11:34:28;96151.66;;;10.28;65.65
20027;BME280;10174;42.688;23.344;2022-11-14T11:37:14;96168.00;;;9.97;66.53
20027;BME280;10174;42.688;23.344;2022-11-14T11:39:51;96173.84;;;9.94;67.14
20027;BME280;10174;42.688;23.344;2022-11-14T11:42:22;96148.75;;;9.89;66.87
20027;BME280;10174;42.688;23.344;2022-11-14T11:44:55;96169.66;;;10.73;65.57
20027;BME280;10174;42.688;23.344;2022-11-14T11:47:24;96149.00;;;10.91;63.68
20027;BME280;10174;42.688;23.344;2022-11-14T11:49:51;96162.19;;;11.87;61.31
20027;BME280;10174;42.688;23.344;2022-11-14T11:54:54;96147.53;;;11.00;63.68
20027;BME280;10174;42.688;23.344;2022-11-14T11:57:27;95991.09;;;10.47;62.46
20027;BME280;10174;42.688;23.344;2022-11-14T12:00:26;96143.19;;;10.99;63.95
20027;BME280;10174;42.688;23.344;2022-11-14T12:02:52;96145.22;;;10.75;64.65
20027;BME280;10174;42.688;23.344;2022-11-14T12:08:00;96145.31;;;10.97;64.14
20027;BME280;10174;42.688;23.344;2022-11-14T12:10:31;96053.28;;;9.93;65.37
20027;BME280;10174;42.688;23.344;2022-11-14T12:13:27;96139.75;;;10.52;65.93
20027;BME280;10174;42.688;23.344;2022-11-14T12:18:43;96127.78;;;10.43;66.75
20027;BME280;10174;42.688;23.344;2022-11-14T12:24:13;96116.06;;;10.49;66.09
20027;BME280;10174;42.688;23.344;2022-11-14T12:27:18;96114.53;;;10.87;65.29
20027;BME280;10174;42.688;23.344;2022-11-14T12:30:07;96061.41;;;10.95;63.99
20027;BME280;10174;42.688;23.344;2022-11-14T12:32:57;96112.25;;;12.24;61.31
20027;BME280;10174;42.688;23.344;2022-11-14T12:35:34;96094.25;;;12.94;57.96
20027;BME280;10174;42.688;23.344;2022-11-14T12:38:04;96086.44;;;13.94;53.94
20027;BME280;10174;42.688;23.344;2022-11-14T12:40:39;96102.81;;;13.24;56.83
20027;BME280;10174;42.688;23.344;2022-11-14T12:50:53;96104.84;;;12.36;59.73
20027;BME280;10174;42.688;23.344;2022-11-14T13:06:37;96059.94;;;13.27;56.44
20027;BME280;10174;42.688;23.344;2022-11-14T13:11:50;96090.34;;;12.15;60.82
20027;BME280;10174;42.688;23.344;2022-11-14T13:14:51;96020.00;;;11.35;62.00
20027;BME280;10174;42.688;23.344;2022-11-14T13:17:35;96082.91;;;11.78;61.97
20027;BME280;10174;42.688;23.344;2022-11-14T13:20:32;96084.38;;;11.64;62.75
20027;BME280;10174;42.688;23.344;2022-11-14T13:33:41;96060.13;;;10.80;65.44
20027;BME280;10174;42.688;23.344;2022-11-14T13:36:10;96034.97;;;10.52;65.58
20027;BME280;10174;42.688;23.344;2022-11-14T13:47:00;96061.88;;;10.92;65.99
20027;BME280;10174;42.688;23.344;2022-11-14T13:52:01;96035.47;;;10.66;65.93
20027;BME280;10174;42.688;23.344;2022-11-14T13:54:26;96047.59;;;10.69;65.93
20027;BME280;10174;42.688;23.344;2022-11-14T13:57:27;96054.69;;;10.75;66.10
20027;BME280;10174;42.688;23.344;2022-11-14T14:00:01;96050.09;;;10.76;66.59
20027;BME280;10174;42.688;23.344;2022-11-14T14:08:31;95921.34;;;10.01;67.31
20027;BME280;10174;42.688;23.344;2022-11-14T14:21:55;95974.72;;;10.31;67.13
20027;BME280;10174;42.688;23.344;2022-11-14T14:24:59;96041.63;;;10.67;68.19
20027;BME280;10174;42.688;23.344;2022-11-14T14:30:16;96027.56;;;10.43;68.17
20027;BME280;10174;42.688;23.344;2022-11-14T14:32:42;96039.22;;;10.48;68.65
20027;BME280;10174;42.688;23.344;2022-11-14T14:35:21;96035.22;;;10.51;68.65
20027;BME280;10174;42.688;23.344;2022-11-14T14:37:51;96033.19;;;10.41;68.85
20027;BME280;10174;42.688;23.344;2022-11-14T14:40:27;96042.94;;;10.47;68.56
20027;BME280;10174;42.688;23.344;2022-11-14T14:42:53;96034.81;;;10.42;69.14
20027;BME280;10174;42.688;23.344;2022-11-14T14:45:21;96028.88;;;10.40;69.08
20027;BME280;10174;42.688;23.344;2022-11-14T14:47:49;96029.84;;;10.34;69.71
20027;BME280;10174;42.688;23.344;2022-11-14T14:50:21;96000.84;;;10.02;69.95
20027;BME280;10174;42.688;23.344;2022-11-14T14:52:57;96029.09;;;10.22;69.54
20027;BME280;10174;42.688;23.344;2022-11-14T14:55:26;96041.84;;;10.14;69.66
20027;BME280;10174;42.688;23.344;2022-11-14T14:57:52;95912.00;;;9.24;69.99